Quebrangulo, Brazil
Current Conditions -  °F | °C
As of 6:00 AM on Tuesday 21 Oct 2014 (Local Time) from SBMO Reporting Station
Clear Clear  
Wind Chill: 68°   Ceiling: Unl
Heat Index: 68°   Visibility: 6mi
Dew Point: 68°   Wind: 3mph
Humidity: 100%   Direction: 30°NNE
Pressure: 29.91"   Gusts: NA
Location:  9.32°S, 36.47°W
Report Text: SBMO 210900Z 03003KT CAVOK 20/20 Q1013
Loading
Personal Weather Stations






























Interactive Weather Map
Tropical Storm Tracking
New forecast layout! Learn more

10-Day Weather Forecast

Advertisements
Track Severe Weather on mobile